Accueil
METAR-TAF:

Aéroports :

Coxyde, Belgique

Base aérienne de Coxyde

latitude: 51-05N, longitude: 002-39E, altitude: 4 m

Observation

Le bulletin a été fait il y a 45 minutes, à 02:55 UTC
Vent 4 kt de sud/sud-ouest
Température 12°C
Humidité 100%
Pression 1018 hPa
Visibilité: 8000 m
Quelques nuages à une hauteur de 6000 ft

METAR: EBFN 270255Z 21004KT 8000 FEW060 12/12 Q1018 BLU

Heure: 05:40 (03:40 UTC)

Prévision

Le bulletin a été fait il y a 11 heures et 59 minutes, à 15:41 UTC
Prévision valable du 26 à 19 UTC au 27 à 07 UTC
Vent 8 kt de sud-ouest
Visibilité 10 km ou plus
Quelques nuages à une hauteur de 2500 ft
Nuages fragmentés à une hauteur de 22000 ft
Temporairement
du 27 à 03 UTC au 27 à 07 UTC
Nuages épars à une hauteur de 800 ft
Nuages fragmentés à une hauteur de 6000 ft

TAF: EBFN 261541Z 2619/2707 23008KT 9999 FEW025 BKN220 TEMPO 2703/2707 SCT008 BKN060

METAR-TAF

Observations et prévisions météorologiques de plus de 4000 aéroports (messages METAR et TAF).

Les stations disponibles sont représentées par des disques jaunes et rouges sur la carte.

Passer la souris dessus pour voir le nom de la station.

Cliquer dessus pour voir les observations et prévisions météorologiques.

Pour changer de carte: cliquez sur les boutons verts avec une croix noire pour zoomer, sur le bouton vert avec un tiret pour effectuer un zoom arrière, ou sur les flèches vertes pour les cartes adjacentes.


METAR-TAF: